sensor_id;sensor_type;location;lat;lon;timestamp;P1;durP1;ratioP1;P2;durP2;ratioP2
9042;SDS011;4556;49.150;8.808;2023-04-15T00:00:44;4.90;;;2.90;;
9042;SDS011;4556;49.150;8.808;2023-04-15T00:03:11;7.50;;;3.33;;
9042;SDS011;4556;49.150;8.808;2023-04-15T00:05:38;7.83;;;2.80;;
9042;SDS011;4556;49.150;8.808;2023-04-15T00:08:05;4.93;;;3.07;;
9042;SDS011;4556;49.150;8.808;2023-04-15T00:10:33;6.17;;;3.23;;
9042;SDS011;4556;49.150;8.808;2023-04-15T00:13:00;7.27;;;2.97;;
9042;SDS011;4556;49.150;8.808;2023-04-15T00:15:30;4.50;;;2.60;;
9042;SDS011;4556;49.150;8.808;2023-04-15T00:17:57;5.73;;;2.37;;
9042;SDS011;4556;49.150;8.808;2023-04-15T00:20:24;6.27;;;2.60;;
9042;SDS011;4556;49.150;8.808;2023-04-15T00:22:51;4.13;;;2.53;;
9042;SDS011;4556;49.150;8.808;2023-04-15T00:25:18;6.27;;;2.30;;
9042;SDS011;4556;49.150;8.808;2023-04-15T00:27:46;3.40;;;2.33;;
9042;SDS011;4556;49.150;8.808;2023-04-15T00:30:13;3.57;;;2.27;;
9042;SDS011;4556;49.150;8.808;2023-04-15T00:32:42;4.97;;;2.40;;
9042;SDS011;4556;49.150;8.808;2023-04-15T00:35:09;5.90;;;2.40;;
9042;SDS011;4556;49.150;8.808;2023-04-15T00:37:37;5.60;;;2.80;;
9042;SDS011;4556;49.150;8.808;2023-04-15T00:40:05;6.03;;;3.03;;
9042;SDS011;4556;49.150;8.808;2023-04-15T00:42:35;7.27;;;3.43;;
9042;SDS011;4556;49.150;8.808;2023-04-15T00:45:03;6.30;;;3.90;;
9042;SDS011;4556;49.150;8.808;2023-04-15T00:47:31;6.77;;;3.77;;
9042;SDS011;4556;49.150;8.808;2023-04-15T00:50:02;5.40;;;3.40;;
9042;SDS011;4556;49.150;8.808;2023-04-15T00:52:30;6.23;;;3.20;;
9042;SDS011;4556;49.150;8.808;2023-04-15T00:54:57;7.07;;;3.27;;
9042;SDS011;4556;49.150;8.808;2023-04-15T00:57:24;5.73;;;2.73;;
9042;SDS011;4556;49.150;8.808;2023-04-15T00:59:53;5.67;;;2.80;;
9042;SDS011;4556;49.150;8.808;2023-04-15T01:02:22;8.93;;;2.87;;
9042;SDS011;4556;49.150;8.808;2023-04-15T01:04:49;6.03;;;3.07;;
9042;SDS011;4556;49.150;8.808;2023-04-15T01:07:17;5.17;;;3.03;;
9042;SDS011;4556;49.150;8.808;2023-04-15T01:09:45;4.87;;;3.20;;
9042;SDS011;4556;49.150;8.808;2023-04-15T01:12:13;7.97;;;3.30;;
9042;SDS011;4556;49.150;8.808;2023-04-15T01:14:42;4.20;;;3.30;;
9042;SDS011;4556;49.150;8.808;2023-04-15T01:17:09;6.67;;;3.40;;
9042;SDS011;4556;49.150;8.808;2023-04-15T01:19:36;7.13;;;3.33;;
9042;SDS011;4556;49.150;8.808;2023-04-15T01:22:03;6.47;;;3.63;;
9042;SDS011;4556;49.150;8.808;2023-04-15T01:24:32;5.67;;;3.60;;
9042;SDS011;4556;49.150;8.808;2023-04-15T01:27:02;6.97;;;3.63;;
9042;SDS011;4556;49.150;8.808;2023-04-15T01:29:30;5.60;;;4.00;;
9042;SDS011;4556;49.150;8.808;2023-04-15T01:31:58;5.43;;;3.63;;
9042;SDS011;4556;49.150;8.808;2023-04-15T01:34:26;7.80;;;3.93;;
9042;SDS011;4556;49.150;8.808;2023-04-15T01:36:53;7.20;;;3.37;;
9042;SDS011;4556;49.150;8.808;2023-04-15T01:39:20;5.47;;;3.27;;
9042;SDS011;4556;49.150;8.808;2023-04-15T01:41:47;6.83;;;3.93;;
9042;SDS011;4556;49.150;8.808;2023-04-15T01:44:15;6.37;;;3.80;;
9042;SDS011;4556;49.150;8.808;2023-04-15T01:46:43;5.87;;;3.80;;
9042;SDS011;4556;49.150;8.808;2023-04-15T01:49:10;7.17;;;3.60;;
9042;SDS011;4556;49.150;8.808;2023-04-15T01:51:37;5.87;;;3.73;;
9042;SDS011;4556;49.150;8.808;2023-04-15T01:54:04;5.47;;;3.43;;
9042;SDS011;4556;49.150;8.808;2023-04-15T01:56:31;6.43;;;3.90;;
9042;SDS011;4556;49.150;8.808;2023-04-15T01:58:58;7.53;;;3.87;;
9042;SDS011;4556;49.150;8.808;2023-04-15T02:01:27;5.63;;;4.03;;
9042;SDS011;4556;49.150;8.808;2023-04-15T02:03:54;5.53;;;4.00;;
9042;SDS011;4556;49.150;8.808;2023-04-15T02:06:21;6.93;;;3.97;;
9042;SDS011;4556;49.150;8.808;2023-04-15T02:08:49;7.77;;;4.23;;
9042;SDS011;4556;49.150;8.808;2023-04-15T02:11:16;8.03;;;4.57;;
9042;SDS011;4556;49.150;8.808;2023-04-15T02:13:43;6.87;;;4.10;;
9042;SDS011;4556;49.150;8.808;2023-04-15T02:16:14;7.00;;;4.00;;
9042;SDS011;4556;49.150;8.808;2023-04-15T02:18:44;5.60;;;4.13;;
9042;SDS011;4556;49.150;8.808;2023-04-15T02:21:11;8.60;;;4.67;;
9042;SDS011;4556;49.150;8.808;2023-04-15T02:23:38;5.93;;;3.60;;
9042;SDS011;4556;49.150;8.808;2023-04-15T02:26:06;6.93;;;4.23;;
9042;SDS011;4556;49.150;8.808;2023-04-15T02:28:33;7.53;;;4.10;;
9042;SDS011;4556;49.150;8.808;2023-04-15T02:31:03;8.00;;;4.47;;
9042;SDS011;4556;49.150;8.808;2023-04-15T02:33:30;5.50;;;4.40;;
9042;SDS011;4556;49.150;8.808;2023-04-15T02:35:59;6.97;;;4.93;;
9042;SDS011;4556;49.150;8.808;2023-04-15T02:38:26;7.63;;;4.77;;
9042;SDS011;4556;49.150;8.808;2023-04-15T02:40:55;7.97;;;5.00;;
9042;SDS011;4556;49.150;8.808;2023-04-15T02:43:22;5.67;;;4.83;;
9042;SDS011;4556;49.150;8.808;2023-04-15T02:45:49;7.13;;;5.00;;
9042;SDS011;4556;49.150;8.808;2023-04-15T02:48:16;7.97;;;5.33;;
9042;SDS011;4556;49.150;8.808;2023-04-15T02:50:44;8.10;;;4.90;;
9042;SDS011;4556;49.150;8.808;2023-04-15T02:53:13;10.30;;;4.50;;
9042;SDS011;4556;49.150;8.808;2023-04-15T02:55:41;5.80;;;4.23;;
9042;SDS011;4556;49.150;8.808;2023-04-15T02:58:08;7.70;;;5.63;;
9042;SDS011;4556;49.150;8.808;2023-04-15T03:00:35;7.63;;;4.77;;
9042;SDS011;4556;49.150;8.808;2023-04-15T03:03:03;9.63;;;6.10;;
9042;SDS011;4556;49.150;8.808;2023-04-15T03:05:31;9.90;;;6.17;;
9042;SDS011;4556;49.150;8.808;2023-04-15T03:07:58;7.50;;;5.87;;
9042;SDS011;4556;49.150;8.808;2023-04-15T03:10:28;12.20;;;6.53;;
9042;SDS011;4556;49.150;8.808;2023-04-15T03:12:55;14.47;;;7.10;;
9042;SDS011;4556;49.150;8.808;2023-04-15T03:15:22;11.67;;;7.17;;
9042;SDS011;4556;49.150;8.808;2023-04-15T03:17:49;9.53;;;6.50;;
9042;SDS011;4556;49.150;8.808;2023-04-15T03:20:16;9.93;;;7.20;;
9042;SDS011;4556;49.150;8.808;2023-04-15T03:22:44;12.40;;;7.70;;
9042;SDS011;4556;49.150;8.808;2023-04-15T03:25:11;10.43;;;6.80;;
9042;SDS011;4556;49.150;8.808;2023-04-15T03:27:40;8.27;;;5.70;;
9042;SDS011;4556;49.150;8.808;2023-04-15T03:30:07;8.10;;;5.93;;
9042;SDS011;4556;49.150;8.808;2023-04-15T03:32:34;11.07;;;6.43;;
9042;SDS011;4556;49.150;8.808;2023-04-15T03:35:01;9.87;;;6.10;;
9042;SDS011;4556;49.150;8.808;2023-04-15T03:37:29;7.97;;;5.90;;
9042;SDS011;4556;49.150;8.808;2023-04-15T03:39:55;7.17;;;5.77;;
9042;SDS011;4556;49.150;8.808;2023-04-15T03:42:23;8.40;;;6.63;;
9042;SDS011;4556;49.150;8.808;2023-04-15T03:44:51;11.17;;;6.23;;
9042;SDS011;4556;49.150;8.808;2023-04-15T03:47:18;10.17;;;6.40;;
9042;SDS011;4556;49.150;8.808;2023-04-15T03:49:45;9.50;;;6.67;;
9042;SDS011;4556;49.150;8.808;2023-04-15T03:52:12;12.20;;;7.10;;
9042;SDS011;4556;49.150;8.808;2023-04-15T03:54:39;9.67;;;6.80;;
9042;SDS011;4556;49.150;8.808;2023-04-15T03:57:06;8.73;;;6.57;;
9042;SDS011;4556;49.150;8.808;2023-04-15T03:59:33;10.87;;;6.37;;
9042;SDS011;4556;49.150;8.808;2023-04-15T04:02:02;11.07;;;6.17;;
9042;SDS011;4556;49.150;8.808;2023-04-15T04:04:29;8.90;;;6.37;;
9042;SDS011;4556;49.150;8.808;2023-04-15T04:06:56;9.33;;;7.23;;
9042;SDS011;4556;49.150;8.808;2023-04-15T04:09:23;8.80;;;6.53;;
9042;SDS011;4556;49.150;8.808;2023-04-15T04:11:51;8.13;;;6.33;;
9042;SDS011;4556;49.150;8.808;2023-04-15T04:14:18;9.93;;;6.67;;
9042;SDS011;4556;49.150;8.808;2023-04-15T04:16:50;9.77;;;7.27;;
9042;SDS011;4556;49.150;8.808;2023-04-15T04:19:19;11.20;;;6.33;;
9042;SDS011;4556;49.150;8.808;2023-04-15T04:21:46;9.43;;;7.13;;
9042;SDS011;4556;49.150;8.808;2023-04-15T04:24:13;8.57;;;6.90;;
9042;SDS011;4556;49.150;8.808;2023-04-15T04:26:40;8.13;;;6.87;;
9042;SDS011;4556;49.150;8.808;2023-04-15T04:29:07;9.43;;;6.70;;
9042;SDS011;4556;49.150;8.808;2023-04-15T04:31:34;11.93;;;6.60;;
9042;SDS011;4556;49.150;8.808;2023-04-15T04:34:01;10.87;;;7.03;;
9042;SDS011;4556;49.150;8.808;2023-04-15T04:36:30;9.20;;;6.63;;
9042;SDS011;4556;49.150;8.808;2023-04-15T04:38:57;11.53;;;7.00;;
9042;SDS011;4556;49.150;8.808;2023-04-15T04:41:25;9.50;;;6.60;;
9042;SDS011;4556;49.150;8.808;2023-04-15T04:43:52;8.13;;;6.17;;
9042;SDS011;4556;49.150;8.808;2023-04-15T04:46:20;9.27;;;6.50;;
9042;SDS011;4556;49.150;8.808;2023-04-15T04:48:47;10.97;;;6.50;;
9042;SDS011;4556;49.150;8.808;2023-04-15T04:51:15;8.30;;;6.30;;
9042;SDS011;4556;49.150;8.808;2023-04-15T04:53:43;11.13;;;7.37;;
9042;SDS011;4556;49.150;8.808;2023-04-15T04:56:10;9.97;;;7.37;;
9042;SDS011;4556;49.150;8.808;2023-04-15T04:58:38;8.23;;;7.00;;
9042;SDS011;4556;49.150;8.808;2023-04-15T05:01:05;8.30;;;6.23;;
9042;SDS011;4556;49.150;8.808;2023-04-15T05:03:33;7.47;;;6.57;;
9042;SDS011;4556;49.150;8.808;2023-04-15T05:06:00;8.67;;;7.07;;
9042;SDS011;4556;49.150;8.808;2023-04-15T05:08:30;7.77;;;6.63;;
9042;SDS011;4556;49.150;8.808;2023-04-15T05:10:59;8.07;;;6.73;;
9042;SDS011;4556;49.150;8.808;2023-04-15T05:13:26;9.03;;;6.87;;
9042;SDS011;4556;49.150;8.808;2023-04-15T05:15:54;9.27;;;7.50;;
9042;SDS011;4556;49.150;8.808;2023-04-15T05:18:21;9.67;;;7.03;;
9042;SDS011;4556;49.150;8.808;2023-04-15T05:20:48;11.70;;;7.30;;
9042;SDS011;4556;49.150;8.808;2023-04-15T05:23:15;9.10;;;6.47;;
9042;SDS011;4556;49.150;8.808;2023-04-15T05:25:43;8.73;;;7.23;;
9042;SDS011;4556;49.150;8.808;2023-04-15T05:28:11;9.77;;;7.23;;
9042;SDS011;4556;49.150;8.808;2023-04-15T05:30:38;8.70;;;6.63;;
9042;SDS011;4556;49.150;8.808;2023-04-15T05:33:06;11.87;;;7.63;;
9042;SDS011;4556;49.150;8.808;2023-04-15T05:35:33;12.43;;;6.43;;
9042;SDS011;4556;49.150;8.808;2023-04-15T05:38:00;9.27;;;6.63;;
9042;SDS011;4556;49.150;8.808;2023-04-15T05:40:27;10.23;;;7.47;;
9042;SDS011;4556;49.150;8.808;2023-04-15T05:42:55;12.20;;;8.37;;
9042;SDS011;4556;49.150;8.808;2023-04-15T05:45:24;10.00;;;8.03;;
9042;SDS011;4556;49.150;8.808;2023-04-15T05:47:51;11.20;;;7.90;;
9042;SDS011;4556;49.150;8.808;2023-04-15T05:50:20;9.40;;;7.40;;
9042;SDS011;4556;49.150;8.808;2023-04-15T05:52:47;11.83;;;8.23;;
9042;SDS011;4556;49.150;8.808;2023-04-15T05:55:14;12.73;;;9.07;;
9042;SDS011;4556;49.150;8.808;2023-04-15T05:57:41;9.73;;;8.20;;
9042;SDS011;4556;49.150;8.808;2023-04-15T06:00:08;12.23;;;8.47;;
9042;SDS011;4556;49.150;8.808;2023-04-15T06:02:38;11.67;;;8.93;;
9042;SDS011;4556;49.150;8.808;2023-04-15T06:05:05;10.90;;;8.17;;
9042;SDS011;4556;49.150;8.808;2023-04-15T06:07:34;11.80;;;8.60;;
9042;SDS011;4556;49.150;8.808;2023-04-15T06:10:04;11.70;;;9.13;;
9042;SDS011;4556;49.150;8.808;2023-04-15T06:12:32;12.40;;;9.13;;
9042;SDS011;4556;49.150;8.808;2023-04-15T06:14:59;13.87;;;9.90;;
9042;SDS011;4556;49.150;8.808;2023-04-15T06:17:26;14.30;;;9.97;;
9042;SDS011;4556;49.150;8.808;2023-04-15T06:19:54;12.40;;;10.30;;
9042;SDS011;4556;49.150;8.808;2023-04-15T06:22:22;14.17;;;10.10;;
9042;SDS011;4556;49.150;8.808;2023-04-15T06:24:49;13.93;;;10.93;;
9042;SDS011;4556;49.150;8.808;2023-04-15T06:27:17;14.87;;;9.97;;
9042;SDS011;4556;49.150;8.808;2023-04-15T06:29:44;13.47;;;9.80;;
9042;SDS011;4556;49.150;8.808;2023-04-15T06:32:11;13.37;;;9.60;;
9042;SDS011;4556;49.150;8.808;2023-04-15T06:34:38;12.63;;;9.23;;
9042;SDS011;4556;49.150;8.808;2023-04-15T06:37:07;11.30;;;8.37;;
9042;SDS011;4556;49.150;8.808;2023-04-15T06:39:35;9.83;;;8.00;;
9042;SDS011;4556;49.150;8.808;2023-04-15T06:42:02;11.33;;;8.20;;
9042;SDS011;4556;49.150;8.808;2023-04-15T06:44:29;10.73;;;8.10;;
9042;SDS011;4556;49.150;8.808;2023-04-15T06:46:56;9.27;;;8.33;;
9042;SDS011;4556;49.150;8.808;2023-04-15T06:49:23;10.77;;;8.13;;
9042;SDS011;4556;49.150;8.808;2023-04-15T06:51:50;12.20;;;8.37;;
9042;SDS011;4556;49.150;8.808;2023-04-15T06:54:19;11.00;;;8.93;;
9042;SDS011;4556;49.150;8.808;2023-04-15T06:56:47;12.00;;;8.23;;
9042;SDS011;4556;49.150;8.808;2023-04-15T06:59:14;11.57;;;7.63;;
9042;SDS011;4556;49.150;8.808;2023-04-15T07:01:41;11.00;;;7.07;;
9042;SDS011;4556;49.150;8.808;2023-04-15T07:04:08;9.07;;;6.73;;
9042;SDS011;4556;49.150;8.808;2023-04-15T07:06:36;8.33;;;6.40;;
9042;SDS011;4556;49.150;8.808;2023-04-15T07:09:03;12.50;;;6.70;;
9042;SDS011;4556;49.150;8.808;2023-04-15T07:11:32;13.20;;;8.30;;
9042;SDS011;4556;49.150;8.808;2023-04-15T07:14:00;11.90;;;7.47;;
9042;SDS011;4556;49.150;8.808;2023-04-15T07:16:28;10.37;;;7.77;;
9042;SDS011;4556;49.150;8.808;2023-04-15T07:18:55;11.97;;;8.47;;
9042;SDS011;4556;49.150;8.808;2023-04-15T07:21:23;11.97;;;7.73;;
9042;SDS011;4556;49.150;8.808;2023-04-15T07:23:51;11.23;;;7.23;;
9042;SDS011;4556;49.150;8.808;2023-04-15T07:26:18;11.20;;;7.07;;
9042;SDS011;4556;49.150;8.808;2023-04-15T07:28:47;10.30;;;6.70;;
9042;SDS011;4556;49.150;8.808;2023-04-15T07:31:14;9.10;;;6.03;;
9042;SDS011;4556;49.150;8.808;2023-04-15T07:33:42;12.00;;;7.00;;
9042;SDS011;4556;49.150;8.808;2023-04-15T07:36:09;9.00;;;6.27;;
9042;SDS011;4556;49.150;8.808;2023-04-15T07:38:36;8.63;;;6.37;;
9042;SDS011;4556;49.150;8.808;2023-04-15T07:41:04;10.70;;;6.00;;
9042;SDS011;4556;49.150;8.808;2023-04-15T07:43:31;8.20;;;5.37;;
9042;SDS011;4556;49.150;8.808;2023-04-15T07:46:00;9.83;;;5.70;;
9042;SDS011;4556;49.150;8.808;2023-04-15T07:48:27;8.63;;;5.17;;
9042;SDS011;4556;49.150;8.808;2023-04-15T07:50:54;7.73;;;5.27;;
9042;SDS011;4556;49.150;8.808;2023-04-15T07:53:21;8.73;;;5.80;;
9042;SDS011;4556;49.150;8.808;2023-04-15T07:55:49;6.73;;;5.10;;
9042;SDS011;4556;49.150;8.808;2023-04-15T07:58:16;8.83;;;5.00;;
9042;SDS011;4556;49.150;8.808;2023-04-15T08:00:43;8.30;;;4.73;;
9042;SDS011;4556;49.150;8.808;2023-04-15T08:03:12;8.40;;;5.00;;
9042;SDS011;4556;49.150;8.808;2023-04-15T08:05:39;7.10;;;4.83;;
9042;SDS011;4556;49.150;8.808;2023-04-15T08:08:06;10.27;;;4.93;;
9042;SDS011;4556;49.150;8.808;2023-04-15T08:10:34;6.47;;;4.53;;
9042;SDS011;4556;49.150;8.808;2023-04-15T08:13:01;9.33;;;4.20;;
9042;SDS011;4556;49.150;8.808;2023-04-15T08:15:28;6.43;;;4.10;;
9042;SDS011;4556;49.150;8.808;2023-04-15T08:17:57;6.77;;;4.47;;
9042;SDS011;4556;49.150;8.808;2023-04-15T08:20:26;7.50;;;4.13;;
9042;SDS011;4556;49.150;8.808;2023-04-15T08:22:54;4.33;;;2.53;;
9042;SDS011;4556;49.150;8.808;2023-04-15T08:25:22;4.50;;;2.40;;
9042;SDS011;4556;49.150;8.808;2023-04-15T08:27:49;4.60;;;2.40;;
9042;SDS011;4556;49.150;8.808;2023-04-15T08:30:16;5.83;;;2.60;;
9042;SDS011;4556;49.150;8.808;2023-04-15T08:32:44;5.03;;;2.40;;
9042;SDS011;4556;49.150;8.808;2023-04-15T08:35:11;3.67;;;2.37;;
9042;SDS011;4556;49.150;8.808;2023-04-15T08:37:40;3.87;;;2.37;;
9042;SDS011;4556;49.150;8.808;2023-04-15T08:40:09;3.37;;;2.20;;
9042;SDS011;4556;49.150;8.808;2023-04-15T08:42:40;5.00;;;2.70;;
9042;SDS011;4556;49.150;8.808;2023-04-15T08:45:09;2.63;;;2.00;;
9042;SDS011;4556;49.150;8.808;2023-04-15T08:47:37;5.43;;;2.63;;
9042;SDS011;4556;49.150;8.808;2023-04-15T08:50:07;4.67;;;2.20;;
9042;SDS011;4556;49.150;8.808;2023-04-15T08:52:35;4.07;;;2.60;;
9042;SDS011;4556;49.150;8.808;2023-04-15T08:55:05;4.87;;;2.47;;
9042;SDS011;4556;49.150;8.808;2023-04-15T08:57:34;5.23;;;2.77;;
9042;SDS011;4556;49.150;8.808;2023-04-15T09:00:02;3.43;;;2.70;;
9042;SDS011;4556;49.150;8.808;2023-04-15T09:02:30;3.90;;;2.57;;
9042;SDS011;4556;49.150;8.808;2023-04-15T09:04:57;5.23;;;2.90;;
9042;SDS011;4556;49.150;8.808;2023-04-15T09:07:25;7.33;;;2.43;;
9042;SDS011;4556;49.150;8.808;2023-04-15T09:09:52;7.13;;;2.70;;
9042;SDS011;4556;49.150;8.808;2023-04-15T09:12:21;7.77;;;2.60;;
9042;SDS011;4556;49.150;8.808;2023-04-15T09:14:48;4.27;;;2.93;;
9042;SDS011;4556;49.150;8.808;2023-04-15T09:17:17;4.77;;;2.50;;
9042;SDS011;4556;49.150;8.808;2023-04-15T09:19:45;5.10;;;2.60;;
9042;SDS011;4556;49.150;8.808;2023-04-15T09:22:12;3.43;;;2.33;;
9042;SDS011;4556;49.150;8.808;2023-04-15T09:24:40;4.17;;;2.30;;
9042;SDS011;4556;49.150;8.808;2023-04-15T09:27:08;4.77;;;2.40;;
9042;SDS011;4556;49.150;8.808;2023-04-15T09:29:36;7.33;;;2.83;;
9042;SDS011;4556;49.150;8.808;2023-04-15T09:32:10;6.00;;;2.57;;
9042;SDS011;4556;49.150;8.808;2023-04-15T09:34:38;4.20;;;2.53;;
9042;SDS011;4556;49.150;8.808;2023-04-15T09:37:05;5.47;;;2.67;;
9042;SDS011;4556;49.150;8.808;2023-04-15T09:39:44;6.27;;;2.63;;
9042;SDS011;4556;49.150;8.808;2023-04-15T09:42:14;5.70;;;2.70;;
9042;SDS011;4556;49.150;8.808;2023-04-15T09:44:49;4.37;;;2.40;;
9042;SDS011;4556;49.150;8.808;2023-04-15T09:47:26;5.40;;;2.23;;
9042;SDS011;4556;49.150;8.808;2023-04-15T09:49:54;4.37;;;2.03;;
9042;SDS011;4556;49.150;8.808;2023-04-15T09:52:22;5.90;;;2.80;;
9042;SDS011;4556;49.150;8.808;2023-04-15T09:54:51;7.07;;;3.23;;
9042;SDS011;4556;49.150;8.808;2023-04-15T09:57:20;21.93;;;12.37;;
9042;SDS011;4556;49.150;8.808;2023-04-15T09:59:47;6.37;;;3.70;;
9042;SDS011;4556;49.150;8.808;2023-04-15T10:02:17;18.13;;;10.80;;
9042;SDS011;4556;49.150;8.808;2023-04-15T10:04:45;7.07;;;3.13;;
9042;SDS011;4556;49.150;8.808;2023-04-15T10:07:14;4.53;;;2.40;;
9042;SDS011;4556;49.150;8.808;2023-04-15T10:09:44;4.47;;;2.70;;
9042;SDS011;4556;49.150;8.808;2023-04-15T10:12:12;7.23;;;3.80;;
9042;SDS011;4556;49.150;8.808;2023-04-15T10:14:41;3.43;;;2.40;;
9042;SDS011;4556;49.150;8.808;2023-04-15T10:17:11;5.23;;;2.60;;
9042;SDS011;4556;49.150;8.808;2023-04-15T10:19:44;4.90;;;2.37;;
9042;SDS011;4556;49.150;8.808;2023-04-15T10:22:12;5.47;;;2.60;;
9042;SDS011;4556;49.150;8.808;2023-04-15T10:24:40;3.73;;;1.90;;
9042;SDS011;4556;49.150;8.808;2023-04-15T10:27:09;4.77;;;2.20;;
9042;SDS011;4556;49.150;8.808;2023-04-15T10:29:36;5.07;;;2.00;;
9042;SDS011;4556;49.150;8.808;2023-04-15T10:32:03;5.20;;;2.23;;
9042;SDS011;4556;49.150;8.808;2023-04-15T10:34:33;2.53;;;1.90;;
9042;SDS011;4556;49.150;8.808;2023-04-15T10:37:01;4.07;;;1.90;;
9042;SDS011;4556;49.150;8.808;2023-04-15T10:39:37;2.53;;;1.70;;
9042;SDS011;4556;49.150;8.808;2023-04-15T10:42:09;3.77;;;2.20;;
9042;SDS011;4556;49.150;8.808;2023-04-15T10:44:36;4.03;;;2.00;;
9042;SDS011;4556;49.150;8.808;2023-04-15T10:47:07;4.97;;;2.10;;
9042;SDS011;4556;49.150;8.808;2023-04-15T10:49:44;6.53;;;1.90;;
9042;SDS011;4556;49.150;8.808;2023-04-15T10:52:13;2.87;;;1.60;;
9042;SDS011;4556;49.150;8.808;2023-04-15T10:54:42;4.10;;;2.03;;
9042;SDS011;4556;49.150;8.808;2023-04-15T10:57:14;2.40;;;1.77;;
9042;SDS011;4556;49.150;8.808;2023-04-15T10:59:59;3.80;;;2.33;;
9042;SDS011;4556;49.150;8.808;2023-04-15T11:02:38;5.40;;;2.40;;
9042;SDS011;4556;49.150;8.808;2023-04-15T11:05:07;3.40;;;2.27;;
9042;SDS011;4556;49.150;8.808;2023-04-15T11:07:39;7.50;;;2.40;;
9042;SDS011;4556;49.150;8.808;2023-04-15T11:13:21;5.57;;;2.40;;
9042;SDS011;4556;49.150;8.808;2023-04-15T11:15:58;3.70;;;2.57;;
9042;SDS011;4556;49.150;8.808;2023-04-15T11:18:27;4.50;;;2.70;;
9042;SDS011;4556;49.150;8.808;2023-04-15T11:21:01;4.00;;;2.57;;
9042;SDS011;4556;49.150;8.808;2023-04-15T11:23:33;4.50;;;2.87;;
9042;SDS011;4556;49.150;8.808;2023-04-15T11:26:05;5.00;;;2.47;;
9042;SDS011;4556;49.150;8.808;2023-04-15T11:28:36;9.87;;;4.50;;
9042;SDS011;4556;49.150;8.808;2023-04-15T11:31:05;3.93;;;2.70;;
9042;SDS011;4556;49.150;8.808;2023-04-15T11:33:34;6.87;;;3.40;;
9042;SDS011;4556;49.150;8.808;2023-04-15T11:36:03;6.87;;;2.83;;
9042;SDS011;4556;49.150;8.808;2023-04-15T11:38:31;4.93;;;3.10;;
9042;SDS011;4556;49.150;8.808;2023-04-15T11:41:00;5.10;;;3.23;;
9042;SDS011;4556;49.150;8.808;2023-04-15T11:43:27;4.93;;;2.83;;
9042;SDS011;4556;49.150;8.808;2023-04-15T11:45:59;4.27;;;3.00;;
9042;SDS011;4556;49.150;8.808;2023-04-15T11:48:28;6.20;;;3.10;;
9042;SDS011;4556;49.150;8.808;2023-04-15T11:50:56;6.63;;;2.70;;
9042;SDS011;4556;49.150;8.808;2023-04-15T11:53:36;3.93;;;2.50;;
9042;SDS011;4556;49.150;8.808;2023-04-15T11:56:05;3.80;;;2.63;;
9042;SDS011;4556;49.150;8.808;2023-04-15T11:58:34;4.60;;;2.50;;
9042;SDS011;4556;49.150;8.808;2023-04-15T12:01:03;6.20;;;2.10;;
9042;SDS011;4556;49.150;8.808;2023-04-15T12:03:35;2.60;;;1.70;;
9042;SDS011;4556;49.150;8.808;2023-04-15T12:06:10;3.20;;;1.73;;
9042;SDS011;4556;49.150;8.808;2023-04-15T12:08:48;2.77;;;1.90;;
9042;SDS011;4556;49.150;8.808;2023-04-15T12:11:17;5.73;;;1.80;;
9042;SDS011;4556;49.150;8.808;2023-04-15T12:13:44;4.43;;;1.70;;
9042;SDS011;4556;49.150;8.808;2023-04-15T12:16:15;3.53;;;1.57;;
9042;SDS011;4556;49.150;8.808;2023-04-15T12:18:43;4.53;;;1.80;;
9042;SDS011;4556;49.150;8.808;2023-04-15T12:21:11;3.73;;;1.53;;
9042;SDS011;4556;49.150;8.808;2023-04-15T12:23:46;1.90;;;1.40;;
9042;SDS011;4556;49.150;8.808;2023-04-15T12:26:16;2.43;;;1.40;;
9042;SDS011;4556;49.150;8.808;2023-04-15T12:28:43;2.40;;;1.30;;
9042;SDS011;4556;49.150;8.808;2023-04-15T12:31:10;2.20;;;1.20;;
9042;SDS011;4556;49.150;8.808;2023-04-15T12:33:38;2.60;;;1.20;;
9042;SDS011;4556;49.150;8.808;2023-04-15T12:36:05;1.73;;;1.10;;
9042;SDS011;4556;49.150;8.808;2023-04-15T12:38:32;1.20;;;0.90;;
9042;SDS011;4556;49.150;8.808;2023-04-15T12:41:00;1.23;;;0.70;;
9042;SDS011;4556;49.150;8.808;2023-04-15T12:43:27;2.70;;;0.77;;
9042;SDS011;4556;49.150;8.808;2023-04-15T12:45:54;2.53;;;0.67;;
9042;SDS011;4556;49.150;8.808;2023-04-15T12:48:21;3.87;;;0.70;;
9042;SDS011;4556;49.150;8.808;2023-04-15T12:50:48;3.13;;;1.10;;
9042;SDS011;4556;49.150;8.808;2023-04-15T12:53:16;1.57;;;0.90;;
9042;SDS011;4556;49.150;8.808;2023-04-15T12:55:43;2.80;;;1.13;;
9042;SDS011;4556;49.150;8.808;2023-04-15T12:58:11;1.67;;;1.20;;
9042;SDS011;4556;49.150;8.808;2023-04-15T13:00:39;3.87;;;1.43;;
9042;SDS011;4556;49.150;8.808;2023-04-15T13:03:06;1.80;;;1.10;;
9042;SDS011;4556;49.150;8.808;2023-04-15T13:05:33;2.70;;;1.30;;
9042;SDS011;4556;49.150;8.808;2023-04-15T13:08:01;2.03;;;1.00;;
9042;SDS011;4556;49.150;8.808;2023-04-15T13:10:28;2.80;;;1.40;;
9042;SDS011;4556;49.150;8.808;2023-04-15T13:12:55;2.77;;;1.50;;
9042;SDS011;4556;49.150;8.808;2023-04-15T13:15:24;2.27;;;1.37;;
9042;SDS011;4556;49.150;8.808;2023-04-15T13:17:51;3.67;;;1.47;;
9042;SDS011;4556;49.150;8.808;2023-04-15T13:20:18;1.70;;;1.20;;
9042;SDS011;4556;49.150;8.808;2023-04-15T13:22:46;2.17;;;1.33;;
9042;SDS011;4556;49.150;8.808;2023-04-15T13:25:13;2.70;;;1.50;;
9042;SDS011;4556;49.150;8.808;2023-04-15T13:27:40;2.60;;;1.37;;
9042;SDS011;4556;49.150;8.808;2023-04-15T13:30:08;4.63;;;1.77;;
9042;SDS011;4556;49.150;8.808;2023-04-15T13:32:37;6.93;;;1.40;;
9042;SDS011;4556;49.150;8.808;2023-04-15T13:35:04;2.77;;;1.50;;
9042;SDS011;4556;49.150;8.808;2023-04-15T13:37:32;1.73;;;1.10;;
9042;SDS011;4556;49.150;8.808;2023-04-15T13:39:59;3.93;;;1.30;;
9042;SDS011;4556;49.150;8.808;2023-04-15T13:42:26;3.07;;;1.50;;
9042;SDS011;4556;49.150;8.808;2023-04-15T13:44:53;1.83;;;1.37;;
9042;SDS011;4556;49.150;8.808;2023-04-15T13:47:20;3.63;;;1.60;;
9042;SDS011;4556;49.150;8.808;2023-04-15T13:49:49;3.20;;;1.50;;
9042;SDS011;4556;49.150;8.808;2023-04-15T13:52:17;5.03;;;1.40;;
9042;SDS011;4556;49.150;8.808;2023-04-15T13:54:44;3.70;;;1.77;;
9042;SDS011;4556;49.150;8.808;2023-04-15T13:57:11;2.43;;;1.50;;
9042;SDS011;4556;49.150;8.808;2023-04-15T13:59:38;3.27;;;1.50;;
9042;SDS011;4556;49.150;8.808;2023-04-15T14:02:06;3.57;;;1.53;;
9042;SDS011;4556;49.150;8.808;2023-04-15T14:04:33;2.57;;;1.40;;
9042;SDS011;4556;49.150;8.808;2023-04-15T14:07:01;3.43;;;1.33;;
9042;SDS011;4556;49.150;8.808;2023-04-15T14:09:29;2.43;;;1.40;;
9042;SDS011;4556;49.150;8.808;2023-04-15T14:11:56;5.57;;;1.37;;
9042;SDS011;4556;49.150;8.808;2023-04-15T14:14:25;4.07;;;1.60;;
9042;SDS011;4556;49.150;8.808;2023-04-15T14:16:53;2.63;;;1.10;;
9042;SDS011;4556;49.150;8.808;2023-04-15T14:19:21;1.90;;;0.97;;
9042;SDS011;4556;49.150;8.808;2023-04-15T14:21:48;1.67;;;0.77;;
9042;SDS011;4556;49.150;8.808;2023-04-15T14:24:17;3.00;;;0.90;;
9042;SDS011;4556;49.150;8.808;2023-04-15T14:26:45;1.87;;;0.93;;
9042;SDS011;4556;49.150;8.808;2023-04-15T14:29:12;3.20;;;0.70;;
9042;SDS011;4556;49.150;8.808;2023-04-15T14:31:39;2.10;;;0.90;;
9042;SDS011;4556;49.150;8.808;2023-04-15T14:34:08;1.53;;;0.90;;
9042;SDS011;4556;49.150;8.808;2023-04-15T14:36:37;2.17;;;1.00;;
9042;SDS011;4556;49.150;8.808;2023-04-15T14:39:05;4.60;;;1.07;;
9042;SDS011;4556;49.150;8.808;2023-04-15T14:41:35;1.87;;;1.10;;
9042;SDS011;4556;49.150;8.808;2023-04-15T14:44:02;3.73;;;1.00;;
9042;SDS011;4556;49.150;8.808;2023-04-15T14:46:29;1.90;;;0.93;;
9042;SDS011;4556;49.150;8.808;2023-04-15T14:48:57;2.03;;;1.00;;
9042;SDS011;4556;49.150;8.808;2023-04-15T14:51:24;1.80;;;1.00;;
9042;SDS011;4556;49.150;8.808;2023-04-15T14:53:51;2.00;;;1.27;;
9042;SDS011;4556;49.150;8.808;2023-04-15T14:56:18;1.77;;;0.83;;
9042;SDS011;4556;49.150;8.808;2023-04-15T14:58:48;3.00;;;1.27;;
9042;SDS011;4556;49.150;8.808;2023-04-15T15:01:17;1.83;;;1.10;;
9042;SDS011;4556;49.150;8.808;2023-04-15T15:03:44;1.73;;;1.20;;
9042;SDS011;4556;49.150;8.808;2023-04-15T15:06:11;3.37;;;0.93;;
9042;SDS011;4556;49.150;8.808;2023-04-15T15:08:38;1.20;;;0.80;;
9042;SDS011;4556;49.150;8.808;2023-04-15T15:11:06;1.53;;;0.80;;
9042;SDS011;4556;49.150;8.808;2023-04-15T15:13:33;1.07;;;0.90;;
9042;SDS011;4556;49.150;8.808;2023-04-15T15:16:02;1.30;;;0.93;;
9042;SDS011;4556;49.150;8.808;2023-04-15T15:18:30;2.57;;;0.90;;
9042;SDS011;4556;49.150;8.808;2023-04-15T15:20:57;1.00;;;0.90;;